sensor_id;sensor_type;location;lat;lon;timestamp;P1;durP1;ratioP1;P2;durP2;ratioP2
17913;SDS011;9082;50.742;8.238;2022-07-29T00:01:54;5.63;;;2.17;;
17913;SDS011;9082;50.742;8.238;2022-07-29T00:04:21;4.00;;;2.13;;
17913;SDS011;9082;50.742;8.238;2022-07-29T00:06:48;5.17;;;2.40;;
17913;SDS011;9082;50.742;8.238;2022-07-29T00:09:17;7.17;;;2.60;;
17913;SDS011;9082;50.742;8.238;2022-07-29T00:11:44;3.00;;;2.00;;
17913;SDS011;9082;50.742;8.238;2022-07-29T00:14:11;3.90;;;2.03;;
17913;SDS011;9082;50.742;8.238;2022-07-29T00:16:38;3.37;;;2.07;;
17913;SDS011;9082;50.742;8.238;2022-07-29T00:19:05;3.67;;;2.40;;
17913;SDS011;9082;50.742;8.238;2022-07-29T00:21:32;5.40;;;2.10;;
17913;SDS011;9082;50.742;8.238;2022-07-29T00:24:00;5.40;;;2.17;;
17913;SDS011;9082;50.742;8.238;2022-07-29T00:26:28;8.57;;;2.50;;
17913;SDS011;9082;50.742;8.238;2022-07-29T00:28:57;6.57;;;2.47;;
17913;SDS011;9082;50.742;8.238;2022-07-29T00:31:24;3.30;;;2.10;;
17913;SDS011;9082;50.742;8.238;2022-07-29T00:33:51;7.43;;;2.30;;
17913;SDS011;9082;50.742;8.238;2022-07-29T00:36:18;10.27;;;2.30;;
17913;SDS011;9082;50.742;8.238;2022-07-29T00:38:45;10.40;;;2.40;;
17913;SDS011;9082;50.742;8.238;2022-07-29T00:41:13;6.23;;;2.30;;
17913;SDS011;9082;50.742;8.238;2022-07-29T00:43:41;6.47;;;2.37;;
17913;SDS011;9082;50.742;8.238;2022-07-29T00:46:08;9.57;;;2.40;;
17913;SDS011;9082;50.742;8.238;2022-07-29T00:48:36;6.63;;;2.40;;
17913;SDS011;9082;50.742;8.238;2022-07-29T00:51:04;9.13;;;2.07;;
17913;SDS011;9082;50.742;8.238;2022-07-29T00:53:32;5.97;;;2.50;;
17913;SDS011;9082;50.742;8.238;2022-07-29T00:55:59;8.13;;;2.37;;
17913;SDS011;9082;50.742;8.238;2022-07-29T00:58:27;3.83;;;2.40;;
17913;SDS011;9082;50.742;8.238;2022-07-29T01:00:55;6.73;;;2.27;;
17913;SDS011;9082;50.742;8.238;2022-07-29T01:03:23;6.37;;;2.37;;
17913;SDS011;9082;50.742;8.238;2022-07-29T01:05:50;4.17;;;2.53;;
17913;SDS011;9082;50.742;8.238;2022-07-29T01:08:17;5.67;;;2.40;;
17913;SDS011;9082;50.742;8.238;2022-07-29T01:10:45;3.53;;;2.13;;
17913;SDS011;9082;50.742;8.238;2022-07-29T01:13:13;7.33;;;2.80;;
17913;SDS011;9082;50.742;8.238;2022-07-29T01:15:42;6.10;;;1.97;;
17913;SDS011;9082;50.742;8.238;2022-07-29T01:18:14;8.17;;;2.40;;
17913;SDS011;9082;50.742;8.238;2022-07-29T01:20:49;5.93;;;2.00;;
17913;SDS011;9082;50.742;8.238;2022-07-29T01:23:28;4.77;;;2.10;;
17913;SDS011;9082;50.742;8.238;2022-07-29T01:26:04;6.23;;;2.07;;
17913;SDS011;9082;50.742;8.238;2022-07-29T01:28:41;3.80;;;1.97;;
17913;SDS011;9082;50.742;8.238;2022-07-29T01:31:10;8.90;;;2.33;;
17913;SDS011;9082;50.742;8.238;2022-07-29T01:33:41;6.57;;;2.30;;
17913;SDS011;9082;50.742;8.238;2022-07-29T01:36:14;4.43;;;2.20;;
17913;SDS011;9082;50.742;8.238;2022-07-29T01:38:44;3.67;;;2.00;;
17913;SDS011;9082;50.742;8.238;2022-07-29T01:41:12;4.30;;;2.10;;
17913;SDS011;9082;50.742;8.238;2022-07-29T01:43:44;7.23;;;2.40;;
17913;SDS011;9082;50.742;8.238;2022-07-29T01:46:11;3.90;;;2.07;;
17913;SDS011;9082;50.742;8.238;2022-07-29T01:48:40;7.40;;;2.07;;
17913;SDS011;9082;50.742;8.238;2022-07-29T01:51:10;6.37;;;2.30;;
17913;SDS011;9082;50.742;8.238;2022-07-29T01:53:42;4.20;;;2.40;;
17913;SDS011;9082;50.742;8.238;2022-07-29T01:56:10;8.37;;;2.30;;
17913;SDS011;9082;50.742;8.238;2022-07-29T01:58:40;5.80;;;1.90;;
17913;SDS011;9082;50.742;8.238;2022-07-29T02:01:09;4.47;;;2.17;;
17913;SDS011;9082;50.742;8.238;2022-07-29T02:03:37;8.90;;;2.30;;
17913;SDS011;9082;50.742;8.238;2022-07-29T02:06:05;3.57;;;2.03;;
17913;SDS011;9082;50.742;8.238;2022-07-29T02:08:33;4.53;;;2.37;;
17913;SDS011;9082;50.742;8.238;2022-07-29T02:11:03;6.43;;;2.33;;
17913;SDS011;9082;50.742;8.238;2022-07-29T02:13:31;9.70;;;2.30;;
17913;SDS011;9082;50.742;8.238;2022-07-29T02:15:58;5.43;;;2.03;;
17913;SDS011;9082;50.742;8.238;2022-07-29T02:18:28;3.27;;;2.10;;
17913;SDS011;9082;50.742;8.238;2022-07-29T02:20:58;4.50;;;2.10;;
17913;SDS011;9082;50.742;8.238;2022-07-29T02:23:26;8.50;;;2.10;;
17913;SDS011;9082;50.742;8.238;2022-07-29T02:25:53;4.77;;;2.20;;
17913;SDS011;9082;50.742;8.238;2022-07-29T02:28:21;6.63;;;2.47;;
17913;SDS011;9082;50.742;8.238;2022-07-29T02:30:49;4.67;;;2.00;;
17913;SDS011;9082;50.742;8.238;2022-07-29T02:33:18;8.67;;;2.27;;
17913;SDS011;9082;50.742;8.238;2022-07-29T02:35:48;5.40;;;2.20;;
17913;SDS011;9082;50.742;8.238;2022-07-29T02:38:15;5.87;;;2.17;;
17913;SDS011;9082;50.742;8.238;2022-07-29T02:41:08;6.53;;;1.97;;
17913;SDS011;9082;50.742;8.238;2022-07-29T02:43:36;4.17;;;1.90;;
17913;SDS011;9082;50.742;8.238;2022-07-29T02:46:04;5.93;;;2.10;;
17913;SDS011;9082;50.742;8.238;2022-07-29T02:48:32;4.07;;;2.17;;
17913;SDS011;9082;50.742;8.238;2022-07-29T02:51:05;4.97;;;1.97;;
17913;SDS011;9082;50.742;8.238;2022-07-29T02:53:32;7.10;;;2.20;;
17913;SDS011;9082;50.742;8.238;2022-07-29T02:56:01;4.90;;;1.90;;
17913;SDS011;9082;50.742;8.238;2022-07-29T02:58:31;4.47;;;1.93;;
17913;SDS011;9082;50.742;8.238;2022-07-29T03:00:59;4.97;;;2.17;;
17913;SDS011;9082;50.742;8.238;2022-07-29T03:03:28;3.77;;;1.77;;
17913;SDS011;9082;50.742;8.238;2022-07-29T03:05:56;3.70;;;1.80;;
17913;SDS011;9082;50.742;8.238;2022-07-29T03:08:25;7.10;;;1.80;;
17913;SDS011;9082;50.742;8.238;2022-07-29T03:10:53;4.80;;;1.87;;
17913;SDS011;9082;50.742;8.238;2022-07-29T03:13:20;5.20;;;1.77;;
17913;SDS011;9082;50.742;8.238;2022-07-29T03:15:48;4.80;;;1.87;;
17913;SDS011;9082;50.742;8.238;2022-07-29T03:18:15;8.50;;;2.07;;
17913;SDS011;9082;50.742;8.238;2022-07-29T03:20:43;5.33;;;2.20;;
17913;SDS011;9082;50.742;8.238;2022-07-29T03:23:10;7.83;;;2.23;;
17913;SDS011;9082;50.742;8.238;2022-07-29T03:25:38;4.57;;;2.30;;
17913;SDS011;9082;50.742;8.238;2022-07-29T03:28:05;7.47;;;2.20;;
17913;SDS011;9082;50.742;8.238;2022-07-29T03:30:33;5.03;;;2.07;;
17913;SDS011;9082;50.742;8.238;2022-07-29T03:33:00;4.60;;;1.83;;
17913;SDS011;9082;50.742;8.238;2022-07-29T03:35:28;7.50;;;2.03;;
17913;SDS011;9082;50.742;8.238;2022-07-29T03:37:56;7.73;;;2.53;;
17913;SDS011;9082;50.742;8.238;2022-07-29T03:40:26;7.57;;;2.47;;
17913;SDS011;9082;50.742;8.238;2022-07-29T03:42:55;6.37;;;2.37;;
17913;SDS011;9082;50.742;8.238;2022-07-29T03:45:23;5.90;;;2.20;;
17913;SDS011;9082;50.742;8.238;2022-07-29T03:47:53;7.37;;;2.57;;
17913;SDS011;9082;50.742;8.238;2022-07-29T03:50:21;5.07;;;2.57;;
17913;SDS011;9082;50.742;8.238;2022-07-29T03:52:49;5.27;;;2.37;;
17913;SDS011;9082;50.742;8.238;2022-07-29T03:55:16;5.10;;;2.33;;
17913;SDS011;9082;50.742;8.238;2022-07-29T03:57:44;6.33;;;2.80;;
17913;SDS011;9082;50.742;8.238;2022-07-29T04:00:13;7.60;;;2.63;;
17913;SDS011;9082;50.742;8.238;2022-07-29T04:02:41;4.97;;;2.60;;
17913;SDS011;9082;50.742;8.238;2022-07-29T04:05:13;6.07;;;2.20;;
17913;SDS011;9082;50.742;8.238;2022-07-29T04:07:42;3.63;;;2.30;;
17913;SDS011;9082;50.742;8.238;2022-07-29T04:10:10;7.83;;;2.60;;
17913;SDS011;9082;50.742;8.238;2022-07-29T04:12:37;10.40;;;2.57;;
17913;SDS011;9082;50.742;8.238;2022-07-29T04:15:04;5.50;;;2.60;;
17913;SDS011;9082;50.742;8.238;2022-07-29T04:17:33;10.20;;;2.90;;
17913;SDS011;9082;50.742;8.238;2022-07-29T04:20:00;5.80;;;2.70;;
17913;SDS011;9082;50.742;8.238;2022-07-29T04:22:27;6.93;;;2.60;;
17913;SDS011;9082;50.742;8.238;2022-07-29T04:24:55;7.93;;;2.90;;
17913;SDS011;9082;50.742;8.238;2022-07-29T04:27:22;9.20;;;2.90;;
17913;SDS011;9082;50.742;8.238;2022-07-29T04:29:49;10.27;;;2.80;;
17913;SDS011;9082;50.742;8.238;2022-07-29T04:32:16;4.43;;;2.43;;
17913;SDS011;9082;50.742;8.238;2022-07-29T04:34:46;4.43;;;2.47;;
17913;SDS011;9082;50.742;8.238;2022-07-29T04:37:13;6.33;;;2.30;;
17913;SDS011;9082;50.742;8.238;2022-07-29T04:39:40;6.97;;;2.80;;
17913;SDS011;9082;50.742;8.238;2022-07-29T04:42:08;8.60;;;2.67;;
17913;SDS011;9082;50.742;8.238;2022-07-29T04:44:35;6.37;;;2.60;;
17913;SDS011;9082;50.742;8.238;2022-07-29T04:47:02;5.47;;;2.60;;
17913;SDS011;9082;50.742;8.238;2022-07-29T04:49:29;8.90;;;2.67;;
17913;SDS011;9082;50.742;8.238;2022-07-29T04:51:58;6.00;;;2.57;;
17913;SDS011;9082;50.742;8.238;2022-07-29T04:54:25;9.43;;;2.70;;
17913;SDS011;9082;50.742;8.238;2022-07-29T04:56:52;7.13;;;2.47;;
17913;SDS011;9082;50.742;8.238;2022-07-29T04:59:19;8.07;;;2.40;;
17913;SDS011;9082;50.742;8.238;2022-07-29T05:01:46;11.33;;;2.37;;
17913;SDS011;9082;50.742;8.238;2022-07-29T05:04:13;5.77;;;2.47;;
17913;SDS011;9082;50.742;8.238;2022-07-29T05:06:41;6.87;;;3.10;;
17913;SDS011;9082;50.742;8.238;2022-07-29T05:09:09;9.87;;;2.70;;
17913;SDS011;9082;50.742;8.238;2022-07-29T05:11:36;9.27;;;2.60;;
17913;SDS011;9082;50.742;8.238;2022-07-29T05:14:03;5.67;;;2.40;;
17913;SDS011;9082;50.742;8.238;2022-07-29T05:16:30;13.90;;;2.43;;
17913;SDS011;9082;50.742;8.238;2022-07-29T05:18:58;10.50;;;2.40;;
17913;SDS011;9082;50.742;8.238;2022-07-29T05:21:25;8.10;;;2.50;;
17913;SDS011;9082;50.742;8.238;2022-07-29T05:23:52;10.00;;;2.20;;
17913;SDS011;9082;50.742;8.238;2022-07-29T05:26:21;4.47;;;1.70;;
17913;SDS011;9082;50.742;8.238;2022-07-29T05:28:48;8.50;;;2.10;;
17913;SDS011;9082;50.742;8.238;2022-07-29T05:31:15;8.73;;;2.70;;
17913;SDS011;9082;50.742;8.238;2022-07-29T05:33:42;10.87;;;2.13;;
17913;SDS011;9082;50.742;8.238;2022-07-29T05:36:10;6.67;;;2.17;;
17913;SDS011;9082;50.742;8.238;2022-07-29T05:38:37;8.43;;;2.20;;
17913;SDS011;9082;50.742;8.238;2022-07-29T05:41:05;11.83;;;2.47;;
17913;SDS011;9082;50.742;8.238;2022-07-29T05:43:33;7.93;;;2.40;;
17913;SDS011;9082;50.742;8.238;2022-07-29T05:46:00;8.47;;;2.37;;
17913;SDS011;9082;50.742;8.238;2022-07-29T05:48:28;9.17;;;2.30;;
17913;SDS011;9082;50.742;8.238;2022-07-29T05:50:55;12.37;;;2.10;;
17913;SDS011;9082;50.742;8.238;2022-07-29T05:53:22;8.23;;;2.03;;
17913;SDS011;9082;50.742;8.238;2022-07-29T05:55:50;7.47;;;2.00;;
17913;SDS011;9082;50.742;8.238;2022-07-29T05:58:17;10.07;;;2.23;;
17913;SDS011;9082;50.742;8.238;2022-07-29T06:00:46;5.07;;;1.70;;
17913;SDS011;9082;50.742;8.238;2022-07-29T06:03:13;7.70;;;2.07;;
17913;SDS011;9082;50.742;8.238;2022-07-29T06:05:40;11.47;;;2.20;;
17913;SDS011;9082;50.742;8.238;2022-07-29T06:08:07;5.57;;;1.83;;
17913;SDS011;9082;50.742;8.238;2022-07-29T06:10:35;7.40;;;1.93;;
17913;SDS011;9082;50.742;8.238;2022-07-29T06:13:02;7.33;;;2.07;;
17913;SDS011;9082;50.742;8.238;2022-07-29T06:15:29;7.33;;;1.90;;
17913;SDS011;9082;50.742;8.238;2022-07-29T06:17:57;8.30;;;1.80;;
17913;SDS011;9082;50.742;8.238;2022-07-29T06:20:25;9.17;;;2.30;;
17913;SDS011;9082;50.742;8.238;2022-07-29T06:22:54;4.57;;;1.50;;
17913;SDS011;9082;50.742;8.238;2022-07-29T06:25:21;8.20;;;1.70;;
17913;SDS011;9082;50.742;8.238;2022-07-29T06:27:48;7.40;;;1.50;;
17913;SDS011;9082;50.742;8.238;2022-07-29T06:30:15;5.83;;;1.50;;
17913;SDS011;9082;50.742;8.238;2022-07-29T06:32:43;4.83;;;1.50;;
17913;SDS011;9082;50.742;8.238;2022-07-29T06:35:11;3.67;;;1.60;;
17913;SDS011;9082;50.742;8.238;2022-07-29T06:37:38;6.60;;;1.70;;
17913;SDS011;9082;50.742;8.238;2022-07-29T06:40:06;5.60;;;1.60;;
17913;SDS011;9082;50.742;8.238;2022-07-29T06:42:51;4.20;;;1.50;;
17913;SDS011;9082;50.742;8.238;2022-07-29T06:45:18;8.37;;;1.60;;
17913;SDS011;9082;50.742;8.238;2022-07-29T06:47:46;5.53;;;1.30;;
17913;SDS011;9082;50.742;8.238;2022-07-29T06:50:15;4.13;;;1.30;;
17913;SDS011;9082;50.742;8.238;2022-07-29T06:52:42;5.73;;;1.53;;
17913;SDS011;9082;50.742;8.238;2022-07-29T06:55:09;9.03;;;1.20;;
17913;SDS011;9082;50.742;8.238;2022-07-29T06:57:36;4.53;;;1.40;;
17913;SDS011;9082;50.742;8.238;2022-07-29T07:00:04;5.67;;;1.47;;
17913;SDS011;9082;50.742;8.238;2022-07-29T07:02:31;3.17;;;1.30;;
17913;SDS011;9082;50.742;8.238;2022-07-29T07:04:59;4.97;;;1.43;;
17913;SDS011;9082;50.742;8.238;2022-07-29T07:07:27;7.77;;;1.73;;
17913;SDS011;9082;50.742;8.238;2022-07-29T07:09:54;7.97;;;1.50;;
17913;SDS011;9082;50.742;8.238;2022-07-29T07:12:21;9.20;;;1.50;;
17913;SDS011;9082;50.742;8.238;2022-07-29T07:14:49;5.63;;;1.37;;
17913;SDS011;9082;50.742;8.238;2022-07-29T07:17:16;7.13;;;1.67;;
17913;SDS011;9082;50.742;8.238;2022-07-29T07:19:43;6.33;;;1.63;;
17913;SDS011;9082;50.742;8.238;2022-07-29T07:22:11;6.47;;;1.70;;
17913;SDS011;9082;50.742;8.238;2022-07-29T07:24:39;6.93;;;1.77;;
17913;SDS011;9082;50.742;8.238;2022-07-29T07:27:06;5.07;;;1.60;;
17913;SDS011;9082;50.742;8.238;2022-07-29T07:29:34;7.33;;;1.87;;
17913;SDS011;9082;50.742;8.238;2022-07-29T07:32:01;4.90;;;1.87;;
17913;SDS011;9082;50.742;8.238;2022-07-29T07:34:28;3.80;;;1.57;;
17913;SDS011;9082;50.742;8.238;2022-07-29T07:36:56;5.22;;;1.42;;
17913;SDS011;9082;50.742;8.238;2022-07-29T07:39:23;3.75;;;1.50;;
17913;SDS011;9082;50.742;8.238;2022-07-29T07:41:52;3.95;;;1.30;;
17913;SDS011;9082;50.742;8.238;2022-07-29T07:44:19;4.90;;;1.52;;
17913;SDS011;9082;50.742;8.238;2022-07-29T07:46:46;4.53;;;1.60;;
17913;SDS011;9082;50.742;8.238;2022-07-29T07:49:13;4.78;;;1.30;;
17913;SDS011;9082;50.742;8.238;2022-07-29T07:51:41;3.25;;;1.35;;
17913;SDS011;9082;50.742;8.238;2022-07-29T07:54:08;4.80;;;1.70;;
17913;SDS011;9082;50.742;8.238;2022-07-29T07:56:35;4.32;;;1.50;;
17913;SDS011;9082;50.742;8.238;2022-07-29T07:59:03;11.07;;;1.85;;
17913;SDS011;9082;50.742;8.238;2022-07-29T08:01:30;6.50;;;1.85;;
17913;SDS011;9082;50.742;8.238;2022-07-29T08:03:58;4.13;;;1.55;;
17913;SDS011;9082;50.742;8.238;2022-07-29T08:06:25;3.20;;;1.30;;
17913;SDS011;9082;50.742;8.238;2022-07-29T08:08:52;6.65;;;1.80;;
17913;SDS011;9082;50.742;8.238;2022-07-29T08:11:19;6.97;;;1.77;;
17913;SDS011;9082;50.742;8.238;2022-07-29T08:13:47;5.38;;;1.80;;
17913;SDS011;9082;50.742;8.238;2022-07-29T08:16:15;5.80;;;1.55;;
17913;SDS011;9082;50.742;8.238;2022-07-29T08:18:43;4.35;;;1.80;;
17913;SDS011;9082;50.742;8.238;2022-07-29T08:21:10;6.00;;;1.90;;
17913;SDS011;9082;50.742;8.238;2022-07-29T08:23:37;3.40;;;1.63;;
17913;SDS011;9082;50.742;8.238;2022-07-29T08:26:10;3.15;;;1.58;;
17913;SDS011;9082;50.742;8.238;2022-07-29T08:28:37;4.23;;;1.93;;
17913;SDS011;9082;50.742;8.238;2022-07-29T08:31:04;10.80;;;1.70;;
17913;SDS011;9082;50.742;8.238;2022-07-29T08:33:33;5.53;;;1.83;;
17913;SDS011;9082;50.742;8.238;2022-07-29T08:36:00;5.70;;;1.80;;
17913;SDS011;9082;50.742;8.238;2022-07-29T08:38:27;7.13;;;1.97;;
17913;SDS011;9082;50.742;8.238;2022-07-29T08:40:55;8.97;;;2.23;;
17913;SDS011;9082;50.742;8.238;2022-07-29T08:43:22;6.77;;;2.00;;
17913;SDS011;9082;50.742;8.238;2022-07-29T08:45:50;3.83;;;1.87;;
17913;SDS011;9082;50.742;8.238;2022-07-29T08:48:18;3.60;;;1.97;;
17913;SDS011;9082;50.742;8.238;2022-07-29T08:50:48;6.77;;;1.80;;
17913;SDS011;9082;50.742;8.238;2022-07-29T08:53:16;6.97;;;2.20;;
17913;SDS011;9082;50.742;8.238;2022-07-29T08:55:45;6.67;;;1.87;;
17913;SDS011;9082;50.742;8.238;2022-07-29T08:58:13;5.43;;;2.20;;
17913;SDS011;9082;50.742;8.238;2022-07-29T09:00:41;5.90;;;2.00;;
17913;SDS011;9082;50.742;8.238;2022-07-29T09:03:09;7.60;;;2.60;;
17913;SDS011;9082;50.742;8.238;2022-07-29T09:05:38;6.90;;;2.40;;
17913;SDS011;9082;50.742;8.238;2022-07-29T09:08:09;9.17;;;2.27;;
17913;SDS011;9082;50.742;8.238;2022-07-29T09:10:37;9.43;;;2.17;;
17913;SDS011;9082;50.742;8.238;2022-07-29T09:13:04;6.63;;;2.10;;
17913;SDS011;9082;50.742;8.238;2022-07-29T09:15:32;2.50;;;1.80;;
17913;SDS011;9082;50.742;8.238;2022-07-29T09:17:59;4.60;;;1.87;;
17913;SDS011;9082;50.742;8.238;2022-07-29T09:20:27;4.23;;;2.03;;
17913;SDS011;9082;50.742;8.238;2022-07-29T09:23:16;4.53;;;1.90;;
17913;SDS011;9082;50.742;8.238;2022-07-29T09:25:44;7.87;;;1.97;;
17913;SDS011;9082;50.742;8.238;2022-07-29T09:28:12;5.57;;;2.20;;
17913;SDS011;9082;50.742;8.238;2022-07-29T09:30:49;7.00;;;2.10;;
17913;SDS011;9082;50.742;8.238;2022-07-29T09:33:17;6.43;;;1.87;;
17913;SDS011;9082;50.742;8.238;2022-07-29T09:35:44;9.70;;;2.00;;
17913;SDS011;9082;50.742;8.238;2022-07-29T09:38:12;9.97;;;2.20;;
17913;SDS011;9082;50.742;8.238;2022-07-29T09:40:40;3.87;;;2.10;;
17913;SDS011;9082;50.742;8.238;2022-07-29T09:43:10;4.77;;;2.17;;
17913;SDS011;9082;50.742;8.238;2022-07-29T09:45:38;6.80;;;1.97;;
17913;SDS011;9082;50.742;8.238;2022-07-29T09:48:12;6.00;;;2.00;;
17913;SDS011;9082;50.742;8.238;2022-07-29T09:50:41;3.63;;;2.07;;
17913;SDS011;9082;50.742;8.238;2022-07-29T09:53:08;6.10;;;2.00;;
17913;SDS011;9082;50.742;8.238;2022-07-29T09:58:20;7.33;;;2.10;;
17913;SDS011;9082;50.742;8.238;2022-07-29T10:00:48;12.13;;;2.27;;
17913;SDS011;9082;50.742;8.238;2022-07-29T10:03:16;6.13;;;1.87;;
17913;SDS011;9082;50.742;8.238;2022-07-29T10:05:44;3.33;;;1.90;;
17913;SDS011;9082;50.742;8.238;2022-07-29T10:08:11;6.47;;;1.90;;
17913;SDS011;9082;50.742;8.238;2022-07-29T10:10:39;6.40;;;2.00;;
17913;SDS011;9082;50.742;8.238;2022-07-29T10:13:07;7.43;;;2.10;;
17913;SDS011;9082;50.742;8.238;2022-07-29T10:15:36;4.13;;;2.07;;
17913;SDS011;9082;50.742;8.238;2022-07-29T10:18:06;4.57;;;2.40;;
17913;SDS011;9082;50.742;8.238;2022-07-29T10:20:33;9.17;;;2.17;;
17913;SDS011;9082;50.742;8.238;2022-07-29T10:23:00;3.70;;;2.00;;
17913;SDS011;9082;50.742;8.238;2022-07-29T10:25:28;9.87;;;2.07;;
17913;SDS011;9082;50.742;8.238;2022-07-29T10:27:55;7.37;;;2.13;;
17913;SDS011;9082;50.742;8.238;2022-07-29T10:30:23;7.93;;;2.30;;
17913;SDS011;9082;50.742;8.238;2022-07-29T10:32:54;10.27;;;2.50;;
17913;SDS011;9082;50.742;8.238;2022-07-29T10:35:27;3.23;;;1.97;;
17913;SDS011;9082;50.742;8.238;2022-07-29T10:40:49;6.37;;;2.30;;
17913;SDS011;9082;50.742;8.238;2022-07-29T10:43:37;5.43;;;2.33;;
17913;SDS011;9082;50.742;8.238;2022-07-29T10:46:07;5.97;;;2.37;;
17913;SDS011;9082;50.742;8.238;2022-07-29T10:48:36;3.53;;;2.17;;
17913;SDS011;9082;50.742;8.238;2022-07-29T10:51:23;6.57;;;2.03;;
17913;SDS011;9082;50.742;8.238;2022-07-29T10:53:51;4.33;;;2.10;;
17913;SDS011;9082;50.742;8.238;2022-07-29T10:56:24;3.17;;;2.10;;
17913;SDS011;9082;50.742;8.238;2022-07-29T11:01:46;3.17;;;2.10;;
17913;SDS011;9082;50.742;8.238;2022-07-29T11:04:15;5.53;;;2.37;;
17913;SDS011;9082;50.742;8.238;2022-07-29T11:09:32;4.37;;;2.00;;
17913;SDS011;9082;50.742;8.238;2022-07-29T11:11:59;5.20;;;2.00;;
17913;SDS011;9082;50.742;8.238;2022-07-29T11:17:11;6.63;;;2.60;;
17913;SDS011;9082;50.742;8.238;2022-07-29T11:19:40;3.87;;;2.27;;
17913;SDS011;9082;50.742;8.238;2022-07-29T11:22:07;7.43;;;2.00;;
17913;SDS011;9082;50.742;8.238;2022-07-29T11:24:35;5.87;;;2.43;;
17913;SDS011;9082;50.742;8.238;2022-07-29T11:29:48;5.73;;;2.07;;
17913;SDS011;9082;50.742;8.238;2022-07-29T11:32:16;3.30;;;2.20;;
17913;SDS011;9082;50.742;8.238;2022-07-29T11:34:46;4.53;;;2.33;;
17913;SDS011;9082;50.742;8.238;2022-07-29T11:37:14;3.33;;;1.90;;
17913;SDS011;9082;50.742;8.238;2022-07-29T11:39:42;3.73;;;2.30;;
17913;SDS011;9082;50.742;8.238;2022-07-29T11:44:55;6.60;;;2.40;;
17913;SDS011;9082;50.742;8.238;2022-07-29T11:47:23;8.53;;;2.30;;
17913;SDS011;9082;50.742;8.238;2022-07-29T11:49:52;3.90;;;1.93;;
17913;SDS011;9082;50.742;8.238;2022-07-29T11:52:21;5.10;;;2.20;;
17913;SDS011;9082;50.742;8.238;2022-07-29T11:54:48;8.30;;;2.40;;
17913;SDS011;9082;50.742;8.238;2022-07-29T11:57:16;5.30;;;2.60;;
17913;SDS011;9082;50.742;8.238;2022-07-29T11:59:45;3.87;;;2.20;;
17913;SDS011;9082;50.742;8.238;2022-07-29T12:02:12;4.00;;;2.63;;
17913;SDS011;9082;50.742;8.238;2022-07-29T12:04:47;3.83;;;2.10;;
17913;SDS011;9082;50.742;8.238;2022-07-29T12:07:16;5.67;;;2.43;;
17913;SDS011;9082;50.742;8.238;2022-07-29T12:09:49;3.40;;;2.27;;
17913;SDS011;9082;50.742;8.238;2022-07-29T12:12:16;3.70;;;2.30;;
17913;SDS011;9082;50.742;8.238;2022-07-29T12:14:44;3.93;;;2.37;;
17913;SDS011;9082;50.742;8.238;2022-07-29T12:17:24;6.43;;;2.23;;
17913;SDS011;9082;50.742;8.238;2022-07-29T12:19:52;5.73;;;2.37;;
17913;SDS011;9082;50.742;8.238;2022-07-29T12:22:25;4.73;;;2.40;;
17913;SDS011;9082;50.742;8.238;2022-07-29T12:24:53;3.47;;;2.30;;
17913;SDS011;9082;50.742;8.238;2022-07-29T12:27:20;3.73;;;2.30;;
17913;SDS011;9082;50.742;8.238;2022-07-29T12:29:54;5.20;;;2.60;;
17913;SDS011;9082;50.742;8.238;2022-07-29T12:32:22;3.77;;;2.23;;
17913;SDS011;9082;50.742;8.238;2022-07-29T12:34:50;3.60;;;2.10;;
17913;SDS011;9082;50.742;8.238;2022-07-29T12:37:17;3.37;;;2.00;;
17913;SDS011;9082;50.742;8.238;2022-07-29T12:39:46;3.37;;;2.20;;
17913;SDS011;9082;50.742;8.238;2022-07-29T12:42:13;3.83;;;2.20;;
17913;SDS011;9082;50.742;8.238;2022-07-29T12:44:47;4.47;;;2.10;;
17913;SDS011;9082;50.742;8.238;2022-07-29T12:47:15;2.47;;;1.80;;
17913;SDS011;9082;50.742;8.238;2022-07-29T12:49:43;3.33;;;2.23;;
17913;SDS011;9082;50.742;8.238;2022-07-29T12:54:56;12.73;;;2.60;;
17913;SDS011;9082;50.742;8.238;2022-07-29T12:57:24;3.97;;;1.90;;
17913;SDS011;9082;50.742;8.238;2022-07-29T13:00:02;5.47;;;2.37;;
17913;SDS011;9082;50.742;8.238;2022-07-29T13:02:30;7.20;;;2.33;;
17913;SDS011;9082;50.742;8.238;2022-07-29T13:04:57;3.73;;;2.00;;
17913;SDS011;9082;50.742;8.238;2022-07-29T13:07:25;4.37;;;2.40;;
17913;SDS011;9082;50.742;8.238;2022-07-29T13:09:53;3.03;;;1.90;;
17913;SDS011;9082;50.742;8.238;2022-07-29T13:12:22;4.47;;;2.40;;
17913;SDS011;9082;50.742;8.238;2022-07-29T13:14:49;3.03;;;2.23;;
17913;SDS011;9082;50.742;8.238;2022-07-29T13:17:17;6.77;;;2.63;;
17913;SDS011;9082;50.742;8.238;2022-07-29T13:19:46;3.77;;;2.07;;
17913;SDS011;9082;50.742;8.238;2022-07-29T13:22:14;6.70;;;2.33;;
17913;SDS011;9082;50.742;8.238;2022-07-29T13:24:45;4.43;;;2.30;;
17913;SDS011;9082;50.742;8.238;2022-07-29T13:27:13;3.07;;;2.10;;
17913;SDS011;9082;50.742;8.238;2022-07-29T13:29:41;4.10;;;2.20;;
17913;SDS011;9082;50.742;8.238;2022-07-29T13:32:08;4.90;;;2.20;;
17913;SDS011;9082;50.742;8.238;2022-07-29T13:34:36;3.13;;;2.10;;
17913;SDS011;9082;50.742;8.238;2022-07-29T13:37:03;6.23;;;2.70;;
17913;SDS011;9082;50.742;8.238;2022-07-29T13:39:30;3.77;;;2.20;;
17913;SDS011;9082;50.742;8.238;2022-07-29T13:41:57;2.80;;;2.10;;
17913;SDS011;9082;50.742;8.238;2022-07-29T13:44:24;5.60;;;2.40;;
17913;SDS011;9082;50.742;8.238;2022-07-29T13:46:53;3.97;;;2.20;;
17913;SDS011;9082;50.742;8.238;2022-07-29T13:49:20;2.80;;;2.33;;
17913;SDS011;9082;50.742;8.238;2022-07-29T13:51:48;8.80;;;2.53;;
17913;SDS011;9082;50.742;8.238;2022-07-29T13:54:15;3.30;;;2.10;;
17913;SDS011;9082;50.742;8.238;2022-07-29T13:56:43;7.87;;;2.33;;
17913;SDS011;9082;50.742;8.238;2022-07-29T13:59:10;3.20;;;2.20;;
17913;SDS011;9082;50.742;8.238;2022-07-29T14:01:37;5.03;;;2.30;;
17913;SDS011;9082;50.742;8.238;2022-07-29T14:04:07;5.63;;;2.30;;
17913;SDS011;9082;50.742;8.238;2022-07-29T14:06:35;4.57;;;2.40;;
17913;SDS011;9082;50.742;8.238;2022-07-29T14:09:03;3.43;;;2.37;;
17913;SDS011;9082;50.742;8.238;2022-07-29T14:11:31;5.47;;;2.40;;
17913;SDS011;9082;50.742;8.238;2022-07-29T14:13:58;4.33;;;2.10;;
17913;SDS011;9082;50.742;8.238;2022-07-29T14:16:25;3.87;;;2.13;;
17913;SDS011;9082;50.742;8.238;2022-07-29T14:18:53;7.03;;;2.50;;
17913;SDS011;9082;50.742;8.238;2022-07-29T14:21:21;4.23;;;2.13;;
17913;SDS011;9082;50.742;8.238;2022-07-29T14:23:48;7.60;;;2.20;;
17913;SDS011;9082;50.742;8.238;2022-07-29T14:26:17;2.57;;;1.93;;
17913;SDS011;9082;50.742;8.238;2022-07-29T14:28:44;5.20;;;2.23;;
17913;SDS011;9082;50.742;8.238;2022-07-29T14:31:11;3.93;;;2.37;;
17913;SDS011;9082;50.742;8.238;2022-07-29T14:33:38;2.73;;;2.17;;
17913;SDS011;9082;50.742;8.238;2022-07-29T14:36:05;4.73;;;2.20;;
17913;SDS011;9082;50.742;8.238;2022-07-29T14:38:34;5.77;;;2.40;;
17913;SDS011;9082;50.742;8.238;2022-07-29T14:41:02;2.80;;;1.90;;
17913;SDS011;9082;50.742;8.238;2022-07-29T14:43:29;3.33;;;2.27;;
17913;SDS011;9082;50.742;8.238;2022-07-29T14:45:57;5.00;;;2.33;;
17913;SDS011;9082;50.742;8.238;2022-07-29T14:48:24;3.67;;;2.43;;
17913;SDS011;9082;50.742;8.238;2022-07-29T14:50:51;5.17;;;2.80;;
17913;SDS011;9082;50.742;8.238;2022-07-29T14:53:19;6.33;;;2.13;;
17913;SDS011;9082;50.742;8.238;2022-07-29T14:55:48;6.37;;;2.60;;
17913;SDS011;9082;50.742;8.238;2022-07-29T14:58:15;3.57;;;2.40;;
17913;SDS011;9082;50.742;8.238;2022-07-29T15:00:42;5.60;;;2.60;;
17913;SDS011;9082;50.742;8.238;2022-07-29T15:03:09;6.60;;;2.50;;
17913;SDS011;9082;50.742;8.238;2022-07-29T15:05:37;7.40;;;2.40;;
17913;SDS011;9082;50.742;8.238;2022-07-29T15:08:04;4.40;;;2.70;;
17913;SDS011;9082;50.742;8.238;2022-07-29T15:10:33;11.70;;;3.70;;
17913;SDS011;9082;50.742;8.238;2022-07-29T15:13:01;8.17;;;3.40;;
17913;SDS011;9082;50.742;8.238;2022-07-29T15:15:29;10.40;;;4.00;;
17913;SDS011;9082;50.742;8.238;2022-07-29T15:17:56;8.13;;;3.90;;
17913;SDS011;9082;50.742;8.238;2022-07-29T15:20:23;9.60;;;4.00;;
17913;SDS011;9082;50.742;8.238;2022-07-29T15:22:52;8.47;;;4.07;;
17913;SDS011;9082;50.742;8.238;2022-07-29T15:25:20;7.67;;;4.50;;
17913;SDS011;9082;50.742;8.238;2022-07-29T15:27:47;7.07;;;4.17;;
17913;SDS011;9082;50.742;8.238;2022-07-29T15:30:16;10.57;;;3.90;;